KGAD/GAD METAR and TAF weather

Enter ICAO airport designator
Station Type Date Time Source
KGAD METAR 2019/08/22 19:56 UTC NOAA

KGAD 221956Z AUTO 24008KT 10SM SCT042 33/22 A3000 RMK AO2 SLP157 T03280222


Station Type Date Time Source
KGAD Decoded METAR 2019/08/22 19:56 UTC NOAA

Station name not available
Aug 22, 2019 - 03:56 PM EDT / 2019.08.22 1956 UTC
Wind: from the WSW (240 degrees) at 9 MPH (8 KT):0
Visibility: 10 mile(s):0
Sky conditions: partly cloudy
Temperature: 91.0 F (32.8 C)
Heat index: 98.1 F (36.7 C):1
Dew Point: 72.0 F (22.2 C)
Relative Humidity: 53%
Pressure (altimeter): 30 in. Hg (1015 hPa)
ob: KGAD 221956Z AUTO 24008KT 10SM SCT042 33/22 A3000 RMK AO2 SLP157 T03280222
cycle: 20

Station Type Date Time Source
KGAD TAF UTC NOAA

Error!

Example: see airport list